Time;durP1;ratioP1;P1;durP2;ratioP2;P2;SDS_P1;SDS_P2;PMS_P1;PMS_P2;Temp;Humidity;BMP_temperature;BMP_pressure;BME280_temperature;BME280_humidity;BME280_pressure;Samples;Min_cycle;Max_cycle;Signal;HPM_P1;HPM_P2
2022/05/09 00:02:11;;;;;;;3.05;2.50;;;;;;;24.18;39.80;100909.78;20455133;28;98248;-77
2022/05/09 00:12:12;;;;;;;2.70;2.40;;;;;;;24.17;39.78;100907.25;20443692;28;97241;-77
2022/05/09 00:22:12;;;;;;;2.63;2.43;;;;;;;24.15;40.00;100907.38;20465303;28;97111;-77
2022/05/09 00:32:13;;;;;;;3.17;2.72;;;;;;;24.13;40.10;100910.16;20458085;28;97735;-78
2022/05/09 00:42:14;;;;;;;2.75;2.55;;;;;;;24.13;40.21;100906.66;20446095;28;97503;-78
2022/05/09 00:52:32;;;;;;;4.85;2.45;;;;;;;24.11;40.21;100924.50;20454341;28;100563;-78
2022/05/09 01:02:34;;;;;;;2.85;2.50;;;;;;;24.10;40.53;100925.44;20477999;28;98574;-77
2022/05/09 01:12:37;;;;;;;3.33;2.70;;;;;;;24.12;40.35;100924.34;20453646;28;98400;-78
2022/05/09 01:22:41;;;;;;;3.42;2.47;;;;;;;24.06;40.52;100930.16;20464308;28;97687;-78
2022/05/09 01:33:09;;;;;;;3.33;2.45;;;;;;;24.03;40.66;100937.50;20453181;28;97247;-78
2022/05/09 01:43:10;;;;;;;2.60;2.40;;;;;;;24.02;40.81;100935.81;20445337;28;97567;-78
2022/05/09 01:53:10;;;;;;;2.83;2.40;;;;;;;23.98;40.99;100928.09;20448411;28;96837;-77
2022/05/09 02:03:11;;;;;;;2.63;2.40;;;;;;;23.97;41.06;100926.44;20430964;28;98351;-78
2022/05/09 02:13:11;;;;;;;2.72;2.35;;;;;;;23.96;40.71;100932.69;20448953;28;96880;-78
2022/05/09 02:23:13;;;;;;;2.63;2.42;;;;;;;23.96;40.86;100932.69;20439462;28;98255;-77
2022/05/09 02:33:14;;;;;;;2.60;2.40;;;;;;;23.95;40.85;100936.31;20442906;28;97196;-78
2022/05/09 02:43:15;;;;;;;2.58;2.38;;;;;;;24.00;40.83;100940.38;20441972;28;97444;-78
2022/05/09 02:53:17;;;;;;;2.47;2.22;;;;;;;24.07;40.81;100944.22;20437844;28;97018;-77
2022/05/09 03:13:38;;;;;;;3.25;2.35;;;;;;;23.94;41.05;100949.66;20439829;28;98495;-78
2022/05/09 03:23:39;;;;;;;2.65;2.40;;;;;;;23.91;41.17;100950.72;20432717;28;97751;-78
2022/05/09 03:33:40;;;;;;;2.60;2.40;;;;;;;23.92;41.14;100962.13;20441161;28;100032;-78
2022/05/09 03:43:41;;;;;;;3.40;2.63;;;;;;;23.88;41.39;100966.00;20441035;28;97449;-78
2022/05/09 03:53:43;;;;;;;2.50;2.30;;;;;;;23.89;41.21;100973.81;20352765;28;97012;-78
2022/05/09 04:03:43;;;;;;;3.30;2.50;;;;;;;23.96;41.04;100982.09;20378891;28;97558;-78
2022/05/09 04:13:45;;;;;;;3.60;2.20;;;;;;;24.06;40.88;100984.84;20363990;28;99082;-78
2022/05/09 04:23:46;;;;;;;11.50;2.50;;;;;;;24.11;41.54;100990.63;20384443;28;101083;-77
2022/05/09 04:33:46;;;;;;;15.93;4.55;;;;;;;24.14;41.39;100990.38;20377632;28;98415;-80
2022/05/09 04:43:47;;;;;;;13.48;4.00;;;;;;;24.16;41.52;101001.69;20363668;28;97693;-78
2022/05/09 04:53:49;;;;;;;16.73;3.85;;;;;;;24.12;41.27;101001.09;20365021;28;100422;-77
2022/05/09 05:03:50;;;;;;;17.08;3.53;;;;;;;24.11;41.05;101007.34;20374148;28;97802;-76
2022/05/09 05:13:51;;;;;;;10.63;3.50;;;;;;;24.02;40.82;101009.88;20370388;28;97977;-78
2022/05/09 05:23:51;;;;;;;6.53;3.42;;;;;;;23.81;39.43;101013.22;20361186;28;97260;-76
2022/05/09 05:33:52;;;;;;;7.18;3.80;;;;;;;23.40;39.44;101018.16;20373668;28;99815;-77
2022/05/09 05:43:52;;;;;;;6.10;4.00;;;;;;;23.23;39.68;101024.72;20359274;28;99590;-77
2022/05/09 05:53:54;;;;;;;7.72;3.88;;;;;;;22.94;40.26;101030.38;20363669;28;100758;-77
2022/05/09 06:03:54;;;;;;;5.88;3.53;;;;;;;22.99;40.43;101046.72;20362096;28;98689;-79
2022/05/09 06:13:55;;;;;;;3.70;3.08;;;;;;;23.25;40.27;101043.94;20358583;28;96962;-79
2022/05/09 06:23:55;;;;;;;5.65;3.33;;;;;;;23.45;40.75;101050.34;20358919;28;98378;-79
2022/05/09 06:33:57;;;;;;;3.92;3.03;;;;;;;23.54;40.54;101050.59;20394955;28;98387;-81
2022/05/09 06:43:58;;;;;;;4.87;3.00;;;;;;;23.59;40.70;101048.44;20396753;28;97846;-80
2022/05/09 06:53:58;;;;;;;3.45;2.80;;;;;;;23.65;40.98;101045.31;20387495;28;97455;-80
2022/05/09 07:03:59;;;;;;;3.00;2.70;;;;;;;23.74;40.97;101062.28;20388554;28;99276;-80
2022/05/09 07:14:00;;;;;;;6.28;3.22;;;;;;;23.79;41.09;101055.66;20392475;28;97998;-80
2022/05/09 07:24:00;;;;;;;3.65;2.78;;;;;;;23.85;41.14;101064.91;20389782;28;96898;-80
2022/05/09 07:34:01;;;;;;;5.97;2.90;;;;;;;23.91;41.04;101063.59;20394385;28;97279;-81
2022/05/09 07:44:01;;;;;;;4.22;2.63;;;;;;;23.99;40.89;101058.59;20400295;28;97395;-81
2022/05/09 07:54:02;;;;;;;4.25;2.90;;;;;;;24.04;40.94;101061.69;20399783;28;96860;-81
2022/05/09 08:04:03;;;;;;;3.92;2.60;;;;;;;24.06;40.79;101065.06;20387985;28;97523;-81
2022/05/09 08:14:05;;;;;;;3.20;2.40;;;;;;;24.09;40.91;101066.63;20388685;28;97872;-80
2022/05/09 08:24:08;;;;;;;2.60;2.40;;;;;;;24.11;40.99;101056.78;20385241;28;99928;-81
2022/05/09 08:34:08;;;;;;;3.65;2.78;;;;;;;24.13;40.93;101054.84;20397837;28;97698;-80
2022/05/09 08:44:19;;;;;;;4.65;2.88;;;;;;;24.20;41.63;101058.66;20461319;28;100221;-83
2022/05/09 08:54:21;;;;;;;7.17;3.20;;;;;;;24.23;41.83;101050.50;20471725;28;97019;-81
2022/05/09 09:04:29;;;;;;;4.80;2.90;;;;;;;24.20;42.04;101052.56;20485600;28;96778;-79
2022/05/09 09:15:07;;;;;;;4.13;3.08;;;;;;;24.21;41.74;101055.06;20490139;28;96961;-78
2022/05/09 09:25:37;;;;;;;4.65;3.28;;;;;;;24.32;41.76;101056.03;20454327;28;97019;-78
2022/05/09 09:35:43;;;;;;;4.68;3.10;;;;;;;24.37;41.92;101049.38;20455569;28;97934;-79
2022/05/09 09:45:49;;;;;;;8.15;3.67;;;;;;;24.37;39.67;101043.25;20455573;28;100201;-77
2022/05/09 09:56:00;;;;;;;5.68;4.10;;;;;;;24.29;37.74;101043.84;20464051;27;97647;-76
2022/05/09 10:06:01;;;;;;;10.53;4.40;;;;;;;24.28;36.88;101042.19;20451386;28;97032;-77
2022/05/09 10:16:08;;;;;;;5.30;4.30;;;;;;;24.22;36.15;101024.16;20458965;28;97664;-76
2022/05/09 10:26:24;;;;;;;7.78;4.03;;;;;;;24.22;36.41;101024.16;20454044;28;97690;-76
2022/05/09 10:37:05;;;;;;;5.78;4.15;;;;;;;24.19;36.56;101017.28;20416396;28;101164;-79
2022/05/09 10:47:33;;;;;;;4.93;4.18;;;;;;;24.16;36.66;101017.56;20449656;28;97661;-78
2022/05/09 10:57:47;;;;;;;7.10;4.85;;;;;;;24.14;36.04;101008.88;20455381;28;98117;-78
2022/05/09 11:08:03;;;;;;;7.55;5.22;;;;;;;24.15;36.71;101015.88;20472309;28;98109;-79
2022/05/09 11:18:15;;;;;;;7.78;4.13;;;;;;;24.08;37.10;101023.47;20454968;28;97824;-78
2022/05/09 11:28:28;;;;;;;8.07;4.53;;;;;;;24.03;38.11;101019.50;20440261;28;96894;-78
2022/05/09 11:38:42;;;;;;;5.07;4.13;;;;;;;24.20;37.59;101018.16;20439560;28;96949;-78
2022/05/09 11:48:57;;;;;;;6.20;3.78;;;;;;;24.37;37.99;101004.38;20459681;28;96965;-78
2022/05/09 11:59:00;;;;;;;5.22;3.47;;;;;;;24.53;37.55;101005.78;20474330;28;97064;-78
2022/05/09 12:09:03;;;;;;;5.43;3.17;;;;;;;24.61;37.30;101011.28;20471885;28;96967;-78
2022/05/09 12:19:13;;;;;;;4.25;3.00;;;;;;;24.75;36.64;101010.19;20468291;28;97523;-78
2022/05/09 12:29:17;;;;;;;6.97;3.58;;;;;;;24.86;36.45;101007.47;20418972;28;99255;-77
2022/05/09 12:39:29;;;;;;;4.88;3.00;;;;;;;24.93;36.66;101005.97;20434962;28;98198;-78
2022/05/09 12:49:40;;;;;;;2.63;2.22;;;;;;;24.86;36.02;100988.91;20500343;28;97694;-79
2022/05/09 12:59:50;;;;;;;3.33;2.40;;;;;;;24.83;36.14;100983.91;20486837;28;101137;-79
2022/05/09 13:09:58;;;;;;;4.45;2.28;;;;;;;24.77;36.54;100987.88;20493898;28;96885;-79
2022/05/09 13:20:00;;;;;;;2.65;2.10;;;;;;;24.57;37.64;100978.94;20480269;28;98185;-78
2022/05/09 13:30:05;;;;;;;4.40;2.38;;;;;;;24.57;39.51;100965.69;20449404;28;99766;-78
2022/05/09 13:40:09;;;;;;;7.28;2.47;;;;;;;24.52;40.41;100948.50;20449279;28;98787;-78
2022/05/09 13:50:12;;;;;;;3.60;2.38;;;;;;;24.55;41.64;100953.56;20465621;28;98853;-77
2022/05/09 14:00:22;;;;;;;3.80;2.13;;;;;;;24.49;41.60;100951.41;20469041;28;97713;-76
2022/05/09 14:10:25;;;;;;;5.57;2.20;;;;;;;24.50;42.07;100963.66;20443684;28;96969;-76
2022/05/09 14:20:33;;;;;;;3.72;2.17;;;;;;;24.50;42.67;100961.88;20405302;28;98935;-77
2022/05/09 14:30:40;;;;;;;4.85;2.70;;;;;;;24.58;43.21;100967.38;20414359;28;98902;-76
2022/05/09 14:40:43;;;;;;;4.30;2.28;;;;;;;24.71;42.85;100958.44;20430873;28;97705;-75
2022/05/09 14:50:52;;;;;;;5.63;2.70;;;;;;;24.86;42.71;100941.25;20445113;28;99516;-77
2022/05/09 15:01:14;;;;;;;4.82;2.67;;;;;;;24.96;42.36;100924.59;20450407;28;98069;-76
2022/05/09 15:11:20;;;;;;;4.18;3.10;;;;;;;24.95;41.13;100937.00;20437034;28;98166;-75
2022/05/09 15:21:20;;;;;;;10.02;3.05;;;;;;;24.88;40.46;100946.44;20426585;28;97140;-76
2022/05/09 15:31:21;;;;;;;5.22;2.63;;;;;;;24.81;39.79;100955.88;20444230;28;99237;-75
2022/05/09 15:41:25;;;;;;;3.47;2.50;;;;;;;24.75;40.38;100963.34;20444092;28;97160;-76
2022/05/09 15:51:26;;;;;;;3.67;2.65;;;;;;;24.67;40.02;100975.53;20447475;28;97025;-77
2022/05/09 16:01:33;;;;;;;9.07;2.83;;;;;;;24.66;40.47;100974.72;20437330;28;99767;-75
2022/05/09 16:11:36;;;;;;;12.80;2.78;;;;;;;24.67;41.32;100968.44;20397374;28;100112;-78
2022/05/09 16:21:36;;;;;;;4.72;2.63;;;;;;;24.68;41.21;100962.19;20422340;28;97705;-79
2022/05/09 16:31:37;;;;;;;8.18;2.75;;;;;;;24.74;40.50;100939.63;20434167;28;100253;-79
2022/05/09 16:41:37;;;;;;;4.35;2.58;;;;;;;24.76;41.26;100945.66;20440823;28;102386;-77
2022/05/09 16:51:38;;;;;;;8.48;3.95;;;;;;;24.79;41.73;100948.03;20463344;28;101157;-78
2022/05/09 17:01:38;;;;;;;5.57;3.92;;;;;;;24.80;41.16;100947.06;20437960;28;99563;-79
2022/05/09 17:11:40;;;;;;;3.38;3.03;;;;;;;24.76;41.06;100946.47;20471060;28;97109;-78
2022/05/09 17:21:40;;;;;;;3.70;2.47;;;;;;;24.69;40.12;100958.56;20460661;28;97967;-79
2022/05/09 17:31:42;;;;;;;5.50;2.40;;;;;;;24.62;39.63;100950.25;20454044;28;97052;-78
2022/05/09 17:41:43;;;;;;;3.20;2.60;;;;;;;24.60;39.63;100964.59;20438346;28;97148;-78
2022/05/09 17:51:46;;;;;;;6.68;2.38;;;;;;;24.54;40.13;100971.22;20468812;28;98292;-79
2022/05/09 18:01:57;;;;;;;5.38;2.70;;;;;;;24.55;40.62;100974.75;20439898;28;97219;-79
2022/05/09 18:11:59;;;;;;;3.47;2.40;;;;;;;24.47;41.06;100988.59;20458884;28;97223;-78
2022/05/09 18:22:00;;;;;;;;;;;;;;;24.57;41.10;100978.94;20463286;28;103766;-76
2022/05/09 18:32:00;;;;;;;4.70;2.50;;;;;;;24.45;41.61;100975.50;20436618;28;97605;-77
2022/05/09 18:42:02;;;;;;;3.88;2.35;;;;;;;24.49;41.81;100991.13;20440774;28;97162;-78
2022/05/09 19:02:23;;;;;;;7.20;2.90;;;;;;;24.43;42.35;100998.59;20458265;28;97312;-77
2022/05/09 19:12:28;;;;;;;5.10;2.80;;;;;;;24.55;42.72;101002.03;20446715;28;97587;-79
2022/05/09 19:22:29;;;;;;;5.03;2.80;;;;;;;24.55;42.28;100995.91;20429387;28;98621;-76
2022/05/09 19:32:39;;;;;;;3.92;2.70;;;;;;;24.54;42.31;100994.22;20424482;28;98407;-75
2022/05/09 19:43:01;;;;;;;3.97;2.63;;;;;;;24.52;42.48;100996.97;20442606;28;98379;-75
2022/05/09 20:03:22;;;;;;;4.07;2.80;;;;;;;24.51;42.79;100997.97;20376845;28;100068;-76
2022/05/09 20:13:26;;;;;;;4.27;2.63;;;;;;;24.46;43.09;100997.50;20425484;28;100711;-76
2022/05/09 20:23:27;;;;;;;4.70;3.20;;;;;;;24.43;43.17;100998.59;20442398;28;98119;-76
2022/05/09 20:33:28;;;;;;;3.70;2.60;;;;;;;24.37;43.14;100996.44;20447816;28;98775;-76
2022/05/09 20:43:30;;;;;;;4.72;2.88;;;;;;;24.40;43.15;100998.84;20460447;28;98454;-76
2022/05/09 20:53:31;;;;;;;2.90;2.60;;;;;;;24.33;43.22;101000.31;20443498;28;99284;-76
2022/05/09 21:03:32;;;;;;;2.95;2.67;;;;;;;24.31;43.53;101004.88;20446567;28;96981;-76
2022/05/09 21:13:33;;;;;;;3.63;2.85;;;;;;;24.33;43.76;101002.97;20451998;28;97425;-76
2022/05/09 21:23:33;;;;;;;4.65;2.88;;;;;;;24.37;43.42;101009.69;20447813;28;99278;-76
2022/05/09 21:33:34;;;;;;;3.30;2.50;;;;;;;24.40;43.55;101008.59;20450546;28;102441;-76
2022/05/09 21:43:34;;;;;;;3.23;2.50;;;;;;;24.39;43.48;101017.47;20444323;28;97648;-76
2022/05/09 21:53:35;;;;;;;4.55;2.67;;;;;;;24.36;43.69;101005.34;20443427;28;100728;-75
2022/05/09 22:03:35;;;;;;;4.05;2.45;;;;;;;24.36;43.58;101013.28;20440505;28;98648;-75
2022/05/09 22:13:36;;;;;;;3.05;2.55;;;;;;;24.29;43.74;101020.91;20437798;28;98159;-76
2022/05/09 22:23:36;;;;;;;3.10;2.72;;;;;;;24.34;43.37;101020.53;20439938;28;97334;-75
2022/05/09 22:33:37;;;;;;;3.10;2.80;;;;;;;24.33;43.65;101017.97;20414771;28;99088;-76
2022/05/09 22:43:37;;;;;;;2.97;2.50;;;;;;;24.33;43.66;101012.69;20442573;28;98019;-76
2022/05/09 22:53:37;;;;;;;2.63;2.33;;;;;;;24.26;43.89;101010.53;20435429;28;97583;-76
2022/05/09 23:03:38;;;;;;;2.65;2.45;;;;;;;24.30;43.81;101008.50;20437119;28;97016;-76
2022/05/09 23:13:39;;;;;;;3.25;2.80;;;;;;;24.23;43.78;101017.88;20423390;28;97906;-76
2022/05/09 23:23:39;;;;;;;2.97;2.65;;;;;;;24.22;44.06;101009.13;20435015;28;97348;-76
2022/05/09 23:33:43;;;;;;;3.17;2.58;;;;;;;24.24;43.98;101003.69;20433727;28;97703;-76
2022/05/09 23:43:47;;;;;;;3.00;2.45;;;;;;;24.15;44.32;100994.69;20440817;28;99921;-76
2022/05/09 23:53:48;;;;;;;3.00;2.70;;;;;;;24.11;44.41;100993.28;20432695;28;97906;-76
